Time;durP1;ratioP1;P1;durP2;ratioP2;P2;SDS_P1;SDS_P2;PMS_P1;PMS_P2;Temp;Humidity;BMP_temperature;BMP_pressure;BME280_temperature;BME280_humidity;BME280_pressure;Samples;Min_cycle;Max_cycle;Signal;HPM_P1;HPM_P2
2024/01/22 00:02:13;;;;;;;23.53;14.07;;;;;;;3.13;57.78;96290.25;5110268;28;20217;-66
2024/01/22 00:04:39;;;;;;;18.97;13.27;;;;;;;3.13;57.91;96287.72;5110849;28;20243;-68
2024/01/22 00:07:07;;;;;;;21.83;14.27;;;;;;;3.16;57.89;96299.44;5110866;28;20188;-65
2024/01/22 00:09:34;;;;;;;22.07;15.07;;;;;;;3.12;57.93;96296.19;5109966;28;20204;-66
2024/01/22 00:12:01;;;;;;;18.87;13.80;;;;;;;2.50;57.80;96182.94;5110942;28;20546;-67
2024/01/22 00:14:28;;;;;;;19.70;13.83;;;;;;;3.00;57.68;96267.09;5110391;28;20193;-67
2024/01/22 00:16:54;;;;;;;19.07;13.40;;;;;;;2.91;57.83;96259.00;5110191;28;20197;-68
2024/01/22 00:19:22;;;;;;;23.53;14.77;;;;;;;2.98;57.91;96276.44;5110779;28;20181;-66
2024/01/22 00:21:49;;;;;;;20.90;13.10;;;;;;;3.18;57.79;96295.94;5110030;28;20260;-65
2024/01/22 00:24:17;;;;;;;18.67;13.37;;;;;;;3.14;57.81;96298.63;5110210;28;20212;-65
2024/01/22 00:26:44;;;;;;;19.07;13.30;;;;;;;3.20;57.90;96311.09;5110039;28;20197;-66
2024/01/22 00:29:10;;;;;;;20.20;13.30;;;;;;;3.22;57.88;96314.38;5110001;28;20653;-65
2024/01/22 00:31:37;;;;;;;17.97;13.40;;;;;;;3.21;57.87;96308.50;5110006;28;20546;-65
2024/01/22 00:34:04;;;;;;;22.07;14.13;;;;;;;3.16;57.80;96300.25;5110488;28;20193;-68
2024/01/22 00:36:31;;;;;;;21.33;14.50;;;;;;;3.23;57.84;96304.19;5109807;28;20551;-65
2024/01/22 00:38:57;;;;;;;17.03;13.07;;;;;;;3.20;57.78;96293.41;5109866;28;20682;-67
2024/01/22 00:41:25;;;;;;;19.30;13.47;;;;;;;3.20;57.91;96295.91;5110094;28;20208;-69
2024/01/22 00:43:52;;;;;;;19.97;13.67;;;;;;;2.64;57.91;96205.22;5109650;28;20185;-66
2024/01/22 00:46:19;;;;;;;20.97;13.83;;;;;;;3.23;57.81;96298.31;5109825;28;20250;-69
2024/01/22 00:48:46;;;;;;;23.07;15.07;;;;;;;3.23;57.81;96293.25;5110174;28;20185;-68
2024/01/22 00:51:12;;;;;;;22.13;13.43;;;;;;;3.08;58.06;96266.84;5109748;28;20200;-67
2024/01/22 00:53:39;;;;;;;21.70;13.47;;;;;;;3.20;57.92;96281.56;5109723;28;20530;-67
2024/01/22 00:56:06;;;;;;;20.13;13.57;;;;;;;3.23;57.77;96283.16;5109690;28;20228;-68
2024/01/22 00:58:35;;;;;;;20.13;13.87;;;;;;;3.22;57.70;96278.97;5109673;28;20691;-65
2024/01/22 01:01:01;;;;;;;21.20;13.97;;;;;;;3.18;57.68;96268.16;5109286;28;20196;-65
2024/01/22 01:03:28;;;;;;;22.40;14.83;;;;;;;3.20;57.78;96275.69;5109491;28;20231;-66
2024/01/22 01:05:55;;;;;;;19.13;14.03;;;;;;;3.19;57.82;96276.56;5109749;28;20224;-70
2024/01/22 01:08:22;;;;;;;24.13;14.33;;;;;;;2.96;57.80;96244.50;5109985;28;20189;-67
2024/01/22 01:10:48;;;;;;;25.57;14.83;;;;;;;3.17;57.60;96280.84;5111282;28;20197;-67
2024/01/22 01:13:15;;;;;;;21.63;13.90;;;;;;;2.97;57.54;96243.63;5109517;28;20296;-68
2024/01/22 01:15:43;;;;;;;24.40;14.53;;;;;;;2.96;57.83;96249.56;5114099;28;20183;-66
2024/01/22 01:18:10;;;;;;;19.10;14.47;;;;;;;3.13;57.71;96277.59;5113933;28;20219;-67
2024/01/22 01:20:37;;;;;;;22.93;15.17;;;;;;;2.95;57.93;96240.34;5114072;28;20185;-68
2024/01/22 01:23:04;;;;;;;20.40;14.60;;;;;;;3.13;57.78;96269.19;5113758;28;20203;-67
2024/01/22 01:25:32;;;;;;;19.67;13.37;;;;;;;3.15;57.84;96272.47;5113420;28;20221;-70
2024/01/22 01:27:59;;;;;;;19.73;13.93;;;;;;;3.12;57.81;96277.66;5113215;28;20196;-69
2024/01/22 01:30:26;;;;;;;24.93;15.53;;;;;;;2.96;57.84;96241.97;5113759;28;20212;-67
2024/01/22 01:32:54;;;;;;;19.97;14.13;;;;;;;3.10;57.81;96270.13;5113666;28;20261;-68
2024/01/22 01:35:22;;;;;;;23.20;13.83;;;;;;;3.09;57.96;96268.47;5113239;28;20196;-67
2024/01/22 01:37:49;;;;;;;22.10;14.83;;;;;;;3.08;57.83;96266.84;5113901;28;20181;-70
2024/01/22 01:40:16;;;;;;;24.30;15.17;;;;;;;3.12;57.95;96272.59;5113264;28;20192;-69
2024/01/22 01:42:44;;;;;;;21.03;13.73;;;;;;;3.04;57.87;96254.34;5113085;28;20257;-69
2024/01/22 01:45:14;;;;;;;24.30;14.77;;;;;;;3.08;57.87;96250.84;5112333;28;20669;-68
2024/01/22 01:47:42;;;;;;;20.93;13.93;;;;;;;3.11;57.89;96266.72;5113294;28;20228;-68
2024/01/22 01:50:11;;;;;;;19.90;14.53;;;;;;;3.08;57.88;96253.38;5112770;28;20241;-71
2024/01/22 01:52:38;;;;;;;24.23;14.30;;;;;;;3.05;57.80;96256.81;5113127;28;20220;-67
2024/01/22 01:55:07;;;;;;;20.87;15.03;;;;;;;3.08;57.86;96248.31;5112932;28;20232;-69
2024/01/22 01:57:36;;;;;;;22.40;14.97;;;;;;;3.13;57.97;96256.56;5112597;28;20217;-68
2024/01/22 02:00:04;;;;;;;23.07;15.03;;;;;;;3.13;57.78;96251.50;5113182;28;20189;-68
2024/01/22 02:02:31;;;;;;;25.43;14.90;;;;;;;3.14;57.91;96253.16;5113398;28;20226;-69
2024/01/22 02:04:58;;;;;;;24.47;16.10;;;;;;;3.07;57.87;96246.69;5112809;28;20220;-67
2024/01/22 02:07:26;;;;;;;25.23;15.67;;;;;;;3.12;57.89;96255.75;5113431;28;20192;-67
2024/01/22 02:09:53;;;;;;;26.60;16.10;;;;;;;3.11;57.67;96260.81;5112889;28;20235;-68
2024/01/22 02:12:21;;;;;;;22.63;15.53;;;;;;;3.11;57.68;96268.41;5112445;28;20247;-67
2024/01/22 02:14:48;;;;;;;23.53;14.57;;;;;;;3.11;57.76;96260.81;5112819;28;20197;-68
2024/01/22 02:17:16;;;;;;;25.93;16.13;;;;;;;2.99;57.78;96242.72;5113932;28;20663;-67
2024/01/22 02:19:42;;;;;;;23.33;15.20;;;;;;;3.05;57.80;96249.25;5118879;28;20185;-68
2024/01/22 02:22:09;;;;;;;30.90;17.93;;;;;;;2.82;57.70;96212.16;5113991;28;20250;-67
2024/01/22 02:24:37;;;;;;;29.07;17.80;;;;;;;3.08;57.80;96254.19;5111723;28;20213;-68
2024/01/22 02:27:04;;;;;;;25.97;16.10;;;;;;;3.07;57.73;96254.25;5112460;28;20181;-68
2024/01/22 02:29:32;;;;;;;24.47;15.97;;;;;;;3.07;57.79;96256.78;5112537;28;20204;-67
2024/01/22 02:31:59;;;;;;;28.13;17.17;;;;;;;2.88;57.85;96222.03;5112440;28;20177;-66
2024/01/22 02:34:26;;;;;;;27.47;17.40;;;;;;;3.05;57.68;96250.94;5111899;28;20277;-65
2024/01/22 02:36:53;;;;;;;27.67;16.83;;;;;;;3.05;57.77;96250.94;5112388;28;20185;-67
2024/01/22 02:39:20;;;;;;;28.27;17.13;;;;;;;2.94;57.75;96224.34;5112535;28;20201;-67
2024/01/22 02:41:48;;;;;;;25.63;16.33;;;;;;;3.03;57.70;96235.84;5111960;28;20189;-68
2024/01/22 02:44:15;;;;;;;24.47;17.17;;;;;;;2.73;57.70;96193.09;5112168;28;20274;-67
2024/01/22 02:46:41;;;;;;;25.23;15.63;;;;;;;2.94;57.59;96231.94;5111895;28;20197;-67
2024/01/22 02:49:09;;;;;;;28.47;17.43;;;;;;;2.73;57.62;96202.38;5111844;28;20193;-66
2024/01/22 02:51:36;;;;;;;29.10;17.40;;;;;;;2.94;57.65;96233.66;5111975;28;20346;-66
2024/01/22 02:54:03;;;;;;;29.47;17.07;;;;;;;2.98;57.68;96237.72;5111549;28;20646;-69
2024/01/22 02:56:30;;;;;;;29.93;16.27;;;;;;;2.97;57.72;96239.38;5112033;28;20236;-66
2024/01/22 02:58:58;;;;;;;27.53;17.10;;;;;;;2.97;57.64;96243.63;5111660;28;20185;-67
2024/01/22 03:01:25;;;;;;;25.67;15.83;;;;;;;2.96;57.73;96236.94;5111694;28;20542;-68
2024/01/22 03:03:52;;;;;;;29.17;18.47;;;;;;;2.90;57.81;96234.63;5111550;28;20246;-67
2024/01/22 03:06:19;;;;;;;30.23;18.10;;;;;;;2.97;57.59;96238.56;5109219;28;20217;-66
2024/01/22 03:08:46;;;;;;;27.23;16.97;;;;;;;2.96;57.70;96237.75;5111408;28;20196;-66
2024/01/22 03:11:12;;;;;;;26.83;17.53;;;;;;;2.95;57.84;96243.69;5111382;28;20184;-68
2024/01/22 03:13:39;;;;;;;29.87;17.47;;;;;;;2.96;57.83;96244.50;5110930;28;20653;-68
2024/01/22 03:16:08;;;;;;;31.57;17.10;;;;;;;2.96;57.73;96250.38;5111815;28;20268;-66
2024/01/22 03:18:34;;;;;;;27.10;17.57;;;;;;;2.97;57.75;96253.72;5111368;28;20200;-68
2024/01/22 03:21:02;;;;;;;26.87;17.43;;;;;;;2.76;57.79;96212.34;5111449;28;20204;-66
2024/01/22 03:23:29;;;;;;;27.63;17.77;;;;;;;2.79;57.99;96222.34;5111854;28;20568;-65
2024/01/22 03:25:56;;;;;;;29.70;17.50;;;;;;;2.98;57.65;96245.28;5110944;28;20224;-66
2024/01/22 03:28:23;;;;;;;30.00;18.13;;;;;;;2.98;57.65;96256.22;5111146;28;20694;-66
2024/01/22 03:30:49;;;;;;;30.70;18.83;;;;;;;3.00;57.88;96251.09;5111115;28;20189;-66
2024/01/22 03:33:18;;;;;;;32.60;19.30;;;;;;;2.98;57.79;96253.69;5111257;28;20204;-66
2024/01/22 03:35:45;;;;;;;28.47;17.67;;;;;;;3.04;57.79;96260.22;5110945;28;20242;-68
2024/01/22 03:38:12;;;;;;;33.37;19.30;;;;;;;2.77;57.57;96214.00;5110777;28;20185;-67
2024/01/22 03:40:39;;;;;;;30.30;18.77;;;;;;;2.99;57.62;96246.94;5110530;28;20223;-66
2024/01/22 03:43:05;;;;;;;33.37;19.97;;;;;;;2.66;57.76;96206.78;5111208;28;20185;-68
2024/01/22 03:45:32;;;;;;;35.17;19.47;;;;;;;3.04;57.61;96257.72;5110313;28;20232;-66
2024/01/22 03:47:59;;;;;;;34.40;21.00;;;;;;;3.04;57.77;96265.28;5110953;28;20192;-66
2024/01/22 03:50:27;;;;;;;38.63;21.47;;;;;;;2.69;57.72;96201.63;5110522;28;20212;-67
2024/01/22 03:52:54;;;;;;;38.23;21.30;;;;;;;3.03;57.47;96256.06;5110908;28;20192;-68
2024/01/22 03:55:21;;;;;;;33.17;20.73;;;;;;;2.95;57.65;96251.28;5110681;28;20452;-68
2024/01/22 03:57:48;;;;;;;38.23;22.50;;;;;;;3.01;57.50;96257.81;5111029;28;20181;-70
2024/01/22 04:00:15;;;;;;;37.80;22.07;;;;;;;2.99;57.52;96264.63;5110940;28;20192;-68
2024/01/22 04:02:42;;;;;;;33.87;21.50;;;;;;;2.82;57.35;96234.88;5110684;28;20188;-68
2024/01/22 04:05:10;;;;;;;38.17;21.83;;;;;;;2.41;57.58;96166.38;5108520;28;20237;-67
2024/01/22 04:07:40;;;;;;;37.67;23.37;;;;;;;2.98;57.44;96260.47;5110687;28;20181;-68
2024/01/22 04:10:08;;;;;;;37.90;23.07;;;;;;;2.79;57.41;96224.06;5110158;28;20197;-69
2024/01/22 04:12:35;;;;;;;41.33;23.43;;;;;;;2.90;57.59;96254.84;5110195;28;20220;-68
2024/01/22 04:15:02;;;;;;;47.83;23.53;;;;;;;2.95;57.54;96265.59;5110370;28;20192;-67
2024/01/22 04:17:29;;;;;;;42.00;24.80;;;;;;;2.86;57.44;96249.06;5110068;28;20648;-67
2024/01/22 04:19:56;;;;;;;40.27;23.57;;;;;;;2.93;57.60;96262.28;5110354;28;20654;-66
2024/01/22 04:22:23;;;;;;;41.83;23.47;;;;;;;2.90;57.33;96260.72;5110221;28;20184;-67
2024/01/22 04:24:51;;;;;;;41.20;22.63;;;;;;;2.93;57.36;96268.16;5110548;28;20188;-67
2024/01/22 04:27:18;;;;;;;38.13;21.70;;;;;;;2.92;57.39;96270.75;5110127;28;20181;-67
2024/01/22 04:29:45;;;;;;;39.10;22.80;;;;;;;2.48;57.31;96200.66;5110632;28;20193;-66
2024/01/22 04:32:11;;;;;;;36.40;21.13;;;;;;;2.88;57.44;96259.09;5110237;28;20181;-67
2024/01/22 04:34:39;;;;;;;36.37;21.67;;;;;;;2.85;57.18;96256.66;5110178;28;20193;-67
2024/01/22 04:37:07;;;;;;;34.77;20.73;;;;;;;2.78;57.36;96245.16;5109912;28;20676;-67
2024/01/22 04:39:35;;;;;;;32.10;19.57;;;;;;;2.79;57.26;96251.84;5109602;28;20192;-68
2024/01/22 04:42:03;;;;;;;32.27;20.50;;;;;;;2.74;57.13;96257.88;5110236;28;20692;-67
2024/01/22 04:44:30;;;;;;;32.43;19.97;;;;;;;2.71;57.41;96260.50;5109670;28;20514;-66
2024/01/22 04:46:57;;;;;;;34.60;20.20;;;;;;;2.68;57.14;96263.16;5109908;28;20216;-68
2024/01/22 04:49:37;;;;;;;26.57;17.07;;;;;;;2.66;57.23;96272.47;5110351;28;20575;-69
2024/01/22 04:52:04;;;;;;;29.43;18.13;;;;;;;2.65;57.58;96273.34;5107945;28;20185;-67
2024/01/22 04:54:30;;;;;;;31.50;17.67;;;;;;;2.49;57.17;96249.47;5110421;28;20181;-65
2024/01/22 04:56:57;;;;;;;27.00;16.93;;;;;;;2.57;57.10;96255.09;5119057;28;20220;-68
2024/01/22 04:59:25;;;;;;;28.67;16.80;;;;;;;2.55;57.06;96259.38;5119559;28;20185;-68
2024/01/22 05:01:53;;;;;;;26.30;17.07;;;;;;;2.58;57.23;96266.81;5110215;28;20185;-67
2024/01/22 05:04:20;;;;;;;25.90;16.07;;;;;;;2.57;57.17;96277.81;5109392;28;20681;-69
2024/01/22 05:06:47;;;;;;;26.07;17.20;;;;;;;2.41;56.96;96256.47;5109052;28;20204;-66
2024/01/22 05:09:14;;;;;;;25.93;15.03;;;;;;;2.56;57.28;96275.34;5109562;28;20185;-67
2024/01/22 05:11:41;;;;;;;26.43;15.10;;;;;;;2.55;57.16;96276.19;5109946;28;20934;-67
2024/01/22 05:14:07;;;;;;;24.77;15.83;;;;;;;2.54;57.24;96275.38;5108981;28;20193;-68
2024/01/22 05:16:38;;;;;;;25.17;16.77;;;;;;;2.51;57.19;96263.69;5108157;28;20181;-67
2024/01/22 05:19:05;;;;;;;28.00;16.13;;;;;;;2.55;57.26;96273.69;5109079;28;20189;-69
2024/01/22 05:21:31;;;;;;;22.93;14.83;;;;;;;2.55;57.36;96278.72;5109753;28;20188;-69
2024/01/22 05:23:58;;;;;;;25.03;15.37;;;;;;;2.56;57.32;96277.88;5109559;28;20178;-66
2024/01/22 05:26:25;;;;;;;23.50;15.97;;;;;;;2.55;57.26;96277.06;5109409;28;20228;-67
2024/01/22 05:28:52;;;;;;;26.07;16.27;;;;;;;2.40;57.04;96252.28;5109708;28;20189;-68
2024/01/22 05:31:18;;;;;;;24.93;16.17;;;;;;;2.10;57.22;96206.97;5109084;28;20579;-67
2024/01/22 05:33:47;;;;;;;26.90;16.20;;;;;;;2.46;57.29;96257.13;5109437;28;20186;-65
2024/01/22 05:36:13;;;;;;;25.40;15.60;;;;;;;2.50;57.39;96262.06;5109170;28;20216;-66
2024/01/22 05:38:41;;;;;;;28.00;16.57;;;;;;;2.20;57.31;96215.06;5109370;28;20236;-67
2024/01/22 05:41:08;;;;;;;27.57;17.73;;;;;;;2.57;57.22;96282.88;5109491;28;20286;-65
2024/01/22 05:43:35;;;;;;;24.03;15.73;;;;;;;2.52;57.20;96272.09;5109950;28;20185;-66
2024/01/22 05:46:01;;;;;;;24.93;16.60;;;;;;;2.56;57.16;96285.44;5109747;28;20561;-66
2024/01/22 05:48:28;;;;;;;24.60;14.87;;;;;;;2.54;57.05;96272.84;5108902;28;20181;-68
2024/01/22 05:50:56;;;;;;;24.63;15.50;;;;;;;2.43;57.14;96260.59;5109230;28;20196;-66
2024/01/22 05:53:23;;;;;;;22.23;16.00;;;;;;;2.18;57.43;96221.88;5109309;28;20189;-67
2024/01/22 05:55:50;;;;;;;26.30;14.97;;;;;;;2.47;57.13;96254.56;5109269;28;20240;-66
2024/01/22 05:58:17;;;;;;;23.60;14.73;;;;;;;2.51;57.02;96271.28;5109073;28;20193;-64
2024/01/22 06:00:44;;;;;;;25.83;11.97;;;;;;;2.67;79.10;96269.03;5111596;28;20225;-66
2024/01/22 06:03:11;;;;;;;18.97;12.23;;;;;;;3.89;100.00;96266.41;5112282;28;20192;-67
2024/01/22 06:05:38;;;;;;;19.87;12.90;;;;;;;5.27;100.00;96271.75;5112631;28;20219;-69
2024/01/22 06:08:06;;;;;;;23.53;13.53;;;;;;;6.02;100.00;96286.19;5112377;28;20204;-70
2024/01/22 06:10:34;;;;;;;19.67;12.50;;;;;;;6.16;100.00;96292.34;5112438;28;20192;-70
2024/01/22 06:13:01;;;;;;;18.93;13.13;;;;;;;6.07;93.03;96282.63;5112452;28;20196;-68
2024/01/22 06:15:29;;;;;;;21.00;12.27;;;;;;;5.86;80.00;96280.13;5113988;28;20204;-69
2024/01/22 06:17:59;;;;;;;22.90;12.73;;;;;;;5.66;74.56;96275.97;5092769;28;20204;-67
2024/01/22 06:20:26;;;;;;;21.10;13.07;;;;;;;5.41;71.96;96266.06;5103300;28;20201;-66
2024/01/22 06:22:54;;;;;;;20.77;13.50;;;;;;;5.44;71.04;96298.09;5096766;28;20189;-64
2024/01/22 06:25:28;;;;;;;18.50;12.93;;;;;;;5.28;69.87;96297.94;5094233;28;20232;-65
2024/01/22 06:27:56;;;;;;;20.73;13.47;;;;;;;4.93;69.56;96271.56;5093055;28;20185;-67
2024/01/22 06:30:22;;;;;;;19.63;13.37;;;;;;;4.45;69.07;96219.47;5106857;28;20200;-65
2024/01/22 06:32:49;;;;;;;20.97;14.33;;;;;;;4.89;69.12;96305.50;5112712;28;20246;-67
2024/01/22 06:35:16;;;;;;;23.60;13.23;;;;;;;4.57;68.99;96271.34;5112860;28;20193;-67
2024/01/22 06:37:43;;;;;;;21.60;13.60;;;;;;;4.61;68.64;96290.59;5112985;28;20204;-68
2024/01/22 06:40:11;;;;;;;23.40;15.07;;;;;;;4.51;68.72;96277.47;5112751;28;20577;-68
2024/01/22 06:42:39;;;;;;;20.23;13.57;;;;;;;4.55;68.71;96296.75;5114508;28;20181;-70
2024/01/22 06:45:07;;;;;;;19.40;13.27;;;;;;;4.48;68.62;96302.94;5112070;28;20193;-69
2024/01/22 06:47:35;;;;;;;20.93;14.23;;;;;;;4.42;68.55;96301.47;5115209;27;20758;-67
2024/01/22 06:50:03;;;;;;;21.87;13.43;;;;;;;4.38;68.45;96301.66;5111148;28;21585;-66
2024/01/22 06:52:30;;;;;;;20.47;13.60;;;;;;;4.22;68.53;96284.50;5110563;28;20191;-67
2024/01/22 06:54:57;;;;;;;21.87;13.97;;;;;;;4.28;68.33;96304.56;5112012;28;20187;-68
2024/01/22 06:57:23;;;;;;;21.77;14.27;;;;;;;4.20;68.15;96298.97;5111761;28;20677;-69
2024/01/22 06:59:52;;;;;;;21.10;14.07;;;;;;;4.21;68.10;96314.97;5104955;28;20200;-67
2024/01/22 07:02:19;;;;;;;24.37;15.30;;;;;;;4.14;67.94;96308.47;5107943;28;20204;-67
2024/01/22 07:04:47;;;;;;;27.83;15.50;;;;;;;4.09;67.88;96315.44;5105613;28;20261;-67
2024/01/22 07:07:14;;;;;;;21.30;14.10;;;;;;;4.10;67.75;96328.06;5091980;28;20798;-69
2024/01/22 07:09:41;;;;;;;22.70;14.57;;;;;;;3.97;67.54;96309.13;5103938;28;20189;-68
2024/01/22 07:12:08;;;;;;;26.30;16.37;;;;;;;4.05;67.42;96321.50;5109378;28;20221;-71
2024/01/22 07:14:35;;;;;;;23.63;16.10;;;;;;;4.03;67.40;96322.38;5102657;28;20190;-67
2024/01/22 07:17:04;;;;;;;22.00;15.37;;;;;;;4.03;67.10;96322.38;5100249;28;20577;-67
2024/01/22 07:19:30;;;;;;;26.07;15.13;;;;;;;4.06;67.00;96318.06;5110342;28;20731;-68
2024/01/22 07:21:57;;;;;;;25.83;15.90;;;;;;;4.02;66.79;96304.72;5110491;28;20201;-67
2024/01/22 07:24:24;;;;;;;26.47;15.70;;;;;;;4.11;66.75;96321.28;5094969;28;20192;-67
2024/01/22 07:26:51;;;;;;;22.67;14.53;;;;;;;4.08;66.21;96312.09;5092027;28;20221;-67
2024/01/22 07:29:18;;;;;;;25.83;15.33;;;;;;;3.87;65.67;96272.41;5103265;28;20192;-66
2024/01/22 07:31:44;;;;;;;23.77;14.97;;;;;;;3.92;65.64;96281.47;5095575;28;20198;-68
2024/01/22 07:34:13;;;;;;;25.17;15.50;;;;;;;4.17;65.21;96313.44;5096716;28;20579;-67
2024/01/22 07:36:39;;;;;;;24.53;15.17;;;;;;;4.23;64.89;96308.13;5095159;28;20193;-67
2024/01/22 07:39:07;;;;;;;22.80;14.93;;;;;;;4.26;64.39;96308.84;5092909;28;20190;-67
2024/01/22 07:41:34;;;;;;;28.77;15.77;;;;;;;4.16;64.22;96284.78;5100043;28;20230;-67
2024/01/22 07:44:01;;;;;;;21.80;14.73;;;;;;;4.38;64.10;96299.13;5110213;28;20189;-69
2024/01/22 07:46:28;;;;;;;25.67;15.80;;;;;;;4.37;63.62;96305.91;5095228;28;20588;-68
2024/01/22 07:48:55;;;;;;;25.27;17.10;;;;;;;4.16;63.19;96261.16;5100278;28;20260;-68
2024/01/22 07:51:24;;;;;;;23.40;15.07;;;;;;;4.03;62.84;96221.13;5100546;28;20550;-69
2024/01/22 07:53:50;;;;;;;29.33;16.80;;;;;;;4.31;62.58;96258.00;5091156;28;20258;-67
2024/01/22 07:56:17;;;;;;;24.57;16.57;;;;;;;4.69;62.21;96308.84;5100828;28;20314;-70
2024/01/22 07:58:45;;;;;;;27.00;15.97;;;;;;;4.75;62.01;96306.91;5092877;28;20223;-68
2024/01/22 08:01:11;;;;;;;23.87;15.47;;;;;;;4.80;61.60;96304.19;5097622;28;20189;-69
2024/01/22 08:03:39;;;;;;;26.20;15.80;;;;;;;4.86;61.39;96303.09;5098835;28;20188;-67
2024/01/22 08:06:06;;;;;;;23.00;14.90;;;;;;;4.92;60.97;96300.31;5112429;28;20189;-69
2024/01/22 08:08:34;;;;;;;23.37;14.87;;;;;;;4.95;60.88;96292.56;5107896;28;20189;-67
2024/01/22 08:11:01;;;;;;;26.30;16.37;;;;;;;5.08;60.40;96296.25;5113579;28;20196;-65
2024/01/22 08:13:28;;;;;;;28.63;15.73;;;;;;;5.16;60.14;96299.28;5106556;28;20177;-67
2024/01/22 08:15:54;;;;;;;25.90;16.13;;;;;;;5.03;59.61;96250.81;5108073;28;20192;-69
2024/01/22 08:18:21;;;;;;;25.70;16.13;;;;;;;5.32;59.57;96279.16;5108839;28;20629;-66
2024/01/22 08:20:50;;;;;;;23.67;15.10;;;;;;;5.41;59.25;96268.59;5109282;28;20552;-68
2024/01/22 08:23:16;;;;;;;23.67;15.10;;;;;;;5.48;58.87;96257.31;5108298;28;20622;-70
2024/01/22 08:25:44;;;;;;;26.73;15.87;;;;;;;5.68;58.58;96268.28;5104756;28;20190;-67
2024/01/22 08:28:11;;;;;;;22.87;15.43;;;;;;;5.82;58.33;96265.09;5094249;28;20220;-67
2024/01/22 08:30:38;;;;;;;22.77;15.60;;;;;;;5.93;57.98;96262.94;5105390;27;20310;-71
2024/01/22 08:33:05;;;;;;;24.90;15.73;;;;;;;6.06;57.69;96271.63;5093685;28;20205;-67
2024/01/22 08:35:32;;;;;;;26.23;16.13;;;;;;;6.23;57.40;96284.38;5104689;28;20546;-63
2024/01/22 08:37:58;;;;;;;22.80;14.97;;;;;;;6.39;57.08;96283.63;5109424;28;20576;-69
2024/01/22 08:40:25;;;;;;;24.20;15.80;;;;;;;6.29;56.87;96256.13;5108766;28;20634;-69
2024/01/22 08:42:55;;;;;;;24.17;16.37;;;;;;;6.65;56.39;96295.94;5108812;28;20191;-68
2024/01/22 08:45:23;;;;;;;21.27;13.73;;;;;;;6.77;56.17;96289.41;5094182;28;20654;-67
2024/01/22 08:47:51;;;;;;;25.30;15.93;;;;;;;6.84;55.77;96282.31;5108506;28;20223;-68
2024/01/22 08:50:19;;;;;;;22.27;15.37;;;;;;;6.96;55.51;96289.34;5108573;28;20294;-65
2024/01/22 08:52:46;;;;;;;23.07;14.53;;;;;;;7.06;55.46;96275.25;5094916;28;20190;-67
2024/01/22 08:55:14;;;;;;;25.37;15.53;;;;;;;7.13;55.14;96279.16;5089772;28;20204;-66
2024/01/22 08:57:41;;;;;;;20.07;13.37;;;;;;;7.11;54.90;96255.50;5091730;28;20282;-67
2024/01/22 09:00:14;;;;;;;20.17;14.27;;;;;;;7.34;54.71;96274.69;5089002;28;20186;-67
2024/01/22 09:02:42;;;;;;;23.43;15.13;;;;;;;7.42;54.36;96276.81;5091723;28;20821;-67
2024/01/22 09:05:09;;;;;;;21.07;14.40;;;;;;;7.62;54.26;96294.44;5101164;28;20196;-69
2024/01/22 09:07:36;;;;;;;20.80;14.60;;;;;;;7.77;54.03;96286.00;5103458;28;20247;-65
2024/01/22 09:10:06;;;;;;;22.87;15.63;;;;;;;7.91;53.74;96284.44;5108299;28;20192;-69
2024/01/22 09:12:33;;;;;;;21.47;14.53;;;;;;;7.97;53.43;96277.28;5095685;28;20280;-68
2024/01/22 09:15:00;;;;;;;22.23;14.03;;;;;;;8.09;53.40;96275.81;5103102;28;20177;-67
2024/01/22 09:17:29;;;;;;;18.93;13.63;;;;;;;8.20;53.13;96281.16;5108113;28;20188;-67
2024/01/22 09:19:56;;;;;;;25.67;16.47;;;;;;;8.09;53.00;96242.69;5106387;28;20185;-67
2024/01/22 09:22:23;;;;;;;25.83;15.47;;;;;;;8.47;52.73;96270.34;5096785;28;20188;-67
2024/01/22 09:24:50;;;;;;;27.57;15.23;;;;;;;8.66;52.42;96265.84;5108275;28;20200;-68
2024/01/22 09:27:17;;;;;;;24.40;15.27;;;;;;;8.86;52.25;96274.09;5108089;28;20216;-67
2024/01/22 09:29:44;;;;;;;24.10;16.23;;;;;;;9.08;52.21;96266.03;5100114;28;20186;-66
2024/01/22 09:32:11;;;;;;;27.17;16.80;;;;;;;9.25;51.81;96263.31;5094838;28;20182;-65
2024/01/22 09:34:39;;;;;;;25.53;16.23;;;;;;;9.44;51.58;96263.03;5099783;28;20189;-64
2024/01/22 09:37:07;;;;;;;23.80;16.43;;;;;;;9.62;51.08;96261.91;5108569;28;20292;-64
2024/01/22 09:39:34;;;;;;;27.17;18.10;;;;;;;9.79;50.88;96266.81;5112411;28;20189;-65
2024/01/22 09:42:00;;;;;;;29.70;17.73;;;;;;;9.94;50.73;96269.34;5095248;28;20189;-64
2024/01/22 09:44:27;;;;;;;31.07;19.73;;;;;;;10.05;50.67;96275.41;5095417;28;20193;-64
2024/01/22 09:46:55;;;;;;;31.23;20.40;;;;;;;9.91;50.13;96244.78;5105278;28;20693;-65
2024/01/22 09:49:23;;;;;;;31.67;20.70;;;;;;;9.90;50.00;96238.06;5101788;28;20174;-65
2024/01/22 09:51:51;;;;;;;30.77;20.57;;;;;;;9.98;49.53;96247.81;5111882;28;20189;-66
2024/01/22 09:54:20;;;;;;;33.37;22.97;;;;;;;9.03;49.76;96088.50;5111821;28;20231;-65
2024/01/22 09:56:52;;;;;;;34.60;22.93;;;;;;;9.95;49.30;96235.22;5112093;28;20232;-64
2024/01/22 09:59:21;;;;;;;34.70;23.03;;;;;;;10.11;48.97;96253.78;5112148;28;20268;-66
2024/01/22 10:01:48;;;;;;;36.07;24.37;;;;;;;10.09;48.79;96253.03;5111709;28;20193;-65
2024/01/22 10:04:16;;;;;;;37.50;24.20;;;;;;;10.04;48.45;96242.28;5105572;28;20228;-64
2024/01/22 10:06:44;;;;;;;36.20;23.63;;;;;;;10.00;48.46;96246.78;5104109;28;20564;-63
2024/01/22 10:09:15;;;;;;;33.23;22.90;;;;;;;9.99;48.33;96236.66;5109134;28;20177;-68
2024/01/22 10:11:41;;;;;;;36.70;23.47;;;;;;;9.98;48.37;96233.28;5110096;28;20189;-67
2024/01/22 10:14:08;;;;;;;36.20;22.27;;;;;;;9.97;48.36;96224.00;5105087;28;20185;-65
2024/01/22 10:16:36;;;;;;;36.20;24.63;;;;;;;10.00;48.23;96222.97;5096480;28;20255;-65
2024/01/22 10:19:06;;;;;;;39.53;25.17;;;;;;;9.98;48.10;96223.06;5100409;28;20186;-66
2024/01/22 10:21:33;;;;;;;40.37;25.63;;;;;;;9.95;48.10;96219.88;5107219;28;20268;-65
2024/01/22 10:24:01;;;;;;;41.63;24.77;;;;;;;9.86;48.08;96205.13;5111686;28;20200;-64
2024/01/22 10:26:31;;;;;;;43.10;26.30;;;;;;;9.87;48.13;96214.41;5111742;28;20307;-65
2024/01/22 10:29:13;;;;;;;41.10;26.43;;;;;;;9.79;48.05;96212.34;5106434;28;20215;-67
2024/01/22 10:31:54;;;;;;;37.77;25.93;;;;;;;9.58;48.11;96196.59;5102520;28;20270;-63
2024/01/22 10:34:21;;;;;;;44.17;28.03;;;;;;;9.65;48.27;96220.84;5108657;28;20220;-65
2024/01/22 10:37:05;;;;;;;42.43;26.63;;;;;;;9.47;47.64;96193.91;5096984;28;20209;-66
2024/01/22 10:39:32;;;;;;;44.37;27.20;;;;;;;9.37;47.96;96170.66;5110813;28;20218;-66
2024/01/22 10:42:09;;;;;;;47.77;28.67;;;;;;;9.28;47.78;96166.94;5104411;27;20564;-64
2024/01/22 10:44:37;;;;;;;42.20;28.53;;;;;;;9.54;47.87;96201.09;5117929;28;20196;-66
2024/01/22 10:47:04;;;;;;;46.87;29.43;;;;;;;9.52;47.82;96200.34;5117261;28;20246;-66
2024/01/22 10:49:32;;;;;;;46.60;28.83;;;;;;;9.50;47.77;96197.09;5099808;28;20197;-67
2024/01/22 10:51:59;;;;;;;45.43;28.53;;;;;;;9.48;47.73;96182.75;5100804;28;20185;-66
2024/01/22 10:54:26;;;;;;;50.83;31.37;;;;;;;9.51;47.70;96185.13;5102232;28;20189;-68
2024/01/22 10:57:01;;;;;;;50.33;31.33;;;;;;;9.50;47.80;96173.28;5093600;28;20232;-67
2024/01/22 10:59:30;;;;;;;53.27;31.73;;;;;;;9.47;47.67;96170.91;5100610;28;20191;-66
2024/01/22 11:01:59;;;;;;;49.57;30.20;;;;;;;9.44;47.68;96174.47;5104003;28;20196;-65
2024/01/22 11:04:30;;;;;;;51.50;30.13;;;;;;;9.42;47.37;96172.94;5100847;28;20205;-64
2024/01/22 11:07:02;;;;;;;47.80;29.67;;;;;;;9.27;47.63;96157.63;5111447;28;20185;-67
2024/01/22 11:09:33;;;;;;;48.27;29.47;;;;;;;9.38;47.69;96172.31;5107201;28;20629;-66
2024/01/22 11:12:05;;;;;;;50.33;30.63;;;;;;;9.37;47.69;96173.22;5104186;28;20629;-67
2024/01/22 11:14:34;;;;;;;48.07;29.97;;;;;;;9.35;47.68;96171.66;5097972;28;20194;-66
2024/01/22 11:17:02;;;;;;;49.00;30.17;;;;;;;9.12;47.57;96138.16;5108466;28;20279;-68
2024/01/22 11:19:29;;;;;;;48.40;30.57;;;;;;;9.09;47.77;96133.22;5110622;28;20253;-67
2024/01/22 11:21:56;;;;;;;48.53;30.70;;;;;;;9.30;47.68;96170.22;5110681;28;20192;-69
2024/01/22 11:24:23;;;;;;;49.83;30.70;;;;;;;9.29;47.71;96166.03;5110595;28;20193;-67
2024/01/22 11:27:05;;;;;;;45.73;28.33;;;;;;;9.25;47.62;96158.66;5110121;28;20200;-65